sensor_id;sensor_type;location;lat;lon;timestamp;P1;durP1;ratioP1;P2;durP2;ratioP2
52590;SDS011;38483;42.620;25.394;2023-05-14T00:02:14;4.50;;;3.60;;
52590;SDS011;38483;42.620;25.394;2023-05-14T00:04:41;7.20;;;3.60;;
52590;SDS011;38483;42.620;25.394;2023-05-14T00:07:08;5.63;;;3.73;;
52590;SDS011;38483;42.620;25.394;2023-05-14T00:09:35;5.43;;;3.40;;
52590;SDS011;38483;42.620;25.394;2023-05-14T00:12:03;4.67;;;3.50;;
52590;SDS011;38483;42.620;25.394;2023-05-14T00:14:30;4.33;;;3.47;;
52590;SDS011;38483;42.620;25.394;2023-05-14T00:16:57;3.43;;;3.13;;
52590;SDS011;38483;42.620;25.394;2023-05-14T00:19:25;7.37;;;3.83;;
52590;SDS011;38483;42.620;25.394;2023-05-14T00:21:52;4.87;;;3.40;;
52590;SDS011;38483;42.620;25.394;2023-05-14T00:24:19;4.20;;;3.80;;
52590;SDS011;38483;42.620;25.394;2023-05-14T00:26:46;4.27;;;3.20;;
52590;SDS011;38483;42.620;25.394;2023-05-14T00:29:13;6.17;;;3.80;;
52590;SDS011;38483;42.620;25.394;2023-05-14T00:31:40;6.10;;;3.87;;
52590;SDS011;38483;42.620;25.394;2023-05-14T00:34:07;4.73;;;4.10;;
52590;SDS011;38483;42.620;25.394;2023-05-14T00:36:34;5.07;;;3.67;;
52590;SDS011;38483;42.620;25.394;2023-05-14T00:39:01;4.23;;;3.60;;
52590;SDS011;38483;42.620;25.394;2023-05-14T00:41:29;5.60;;;3.80;;
52590;SDS011;38483;42.620;25.394;2023-05-14T00:43:56;7.07;;;3.80;;
52590;SDS011;38483;42.620;25.394;2023-05-14T00:46:23;8.30;;;4.53;;
52590;SDS011;38483;42.620;25.394;2023-05-14T00:48:50;6.47;;;4.20;;
52590;SDS011;38483;42.620;25.394;2023-05-14T00:51:17;4.70;;;4.20;;
52590;SDS011;38483;42.620;25.394;2023-05-14T00:53:45;8.17;;;4.40;;
52590;SDS011;38483;42.620;25.394;2023-05-14T00:56:12;6.40;;;4.53;;
52590;SDS011;38483;42.620;25.394;2023-05-14T00:58:41;5.07;;;4.10;;
52590;SDS011;38483;42.620;25.394;2023-05-14T01:01:08;6.17;;;4.20;;
52590;SDS011;38483;42.620;25.394;2023-05-14T01:03:35;6.17;;;4.10;;
52590;SDS011;38483;42.620;25.394;2023-05-14T01:14:39;5.63;;;4.23;;
52590;SDS011;38483;42.620;25.394;2023-05-14T01:17:21;4.13;;;3.73;;
52590;SDS011;38483;42.620;25.394;2023-05-14T01:19:50;5.43;;;4.20;;
52590;SDS011;38483;42.620;25.394;2023-05-14T01:22:18;5.57;;;4.20;;
52590;SDS011;38483;42.620;25.394;2023-05-14T01:24:45;6.77;;;4.57;;
52590;SDS011;38483;42.620;25.394;2023-05-14T01:27:16;5.80;;;4.23;;
52590;SDS011;38483;42.620;25.394;2023-05-14T01:30:08;5.93;;;4.40;;
52590;SDS011;38483;42.620;25.394;2023-05-14T01:32:50;5.87;;;4.40;;
52590;SDS011;38483;42.620;25.394;2023-05-14T01:35:22;7.23;;;4.63;;
52590;SDS011;38483;42.620;25.394;2023-05-14T01:37:54;5.67;;;4.43;;
52590;SDS011;38483;42.620;25.394;2023-05-14T01:40:23;8.23;;;4.40;;
52590;SDS011;38483;42.620;25.394;2023-05-14T01:42:51;5.80;;;4.53;;
52590;SDS011;38483;42.620;25.394;2023-05-14T01:45:19;6.30;;;4.80;;
52590;SDS011;38483;42.620;25.394;2023-05-14T01:47:47;6.03;;;4.40;;
52590;SDS011;38483;42.620;25.394;2023-05-14T01:50:14;6.73;;;4.90;;
52590;SDS011;38483;42.620;25.394;2023-05-14T01:52:41;5.73;;;4.00;;
52590;SDS011;38483;42.620;25.394;2023-05-14T01:55:08;6.13;;;5.37;;
52590;SDS011;38483;42.620;25.394;2023-05-14T01:57:36;5.03;;;3.90;;
52590;SDS011;38483;42.620;25.394;2023-05-14T02:00:03;4.77;;;4.00;;
52590;SDS011;38483;42.620;25.394;2023-05-14T02:02:39;4.73;;;3.57;;
52590;SDS011;38483;42.620;25.394;2023-05-14T02:05:12;6.00;;;4.37;;
52590;SDS011;38483;42.620;25.394;2023-05-14T02:07:39;5.93;;;3.93;;
52590;SDS011;38483;42.620;25.394;2023-05-14T02:10:07;4.43;;;3.80;;
52590;SDS011;38483;42.620;25.394;2023-05-14T02:12:35;3.80;;;3.50;;
52590;SDS011;38483;42.620;25.394;2023-05-14T02:15:03;7.23;;;3.90;;
52590;SDS011;38483;42.620;25.394;2023-05-14T02:17:33;5.00;;;3.60;;
52590;SDS011;38483;42.620;25.394;2023-05-14T02:20:00;5.00;;;4.10;;
52590;SDS011;38483;42.620;25.394;2023-05-14T02:22:47;4.23;;;3.83;;
52590;SDS011;38483;42.620;25.394;2023-05-14T02:25:14;4.87;;;3.83;;
52590;SDS011;38483;42.620;25.394;2023-05-14T02:27:42;6.03;;;3.53;;
52590;SDS011;38483;42.620;25.394;2023-05-14T02:30:10;5.43;;;4.00;;
52590;SDS011;38483;42.620;25.394;2023-05-14T02:32:38;4.97;;;3.80;;
52590;SDS011;38483;42.620;25.394;2023-05-14T02:35:05;4.03;;;3.63;;
52590;SDS011;38483;42.620;25.394;2023-05-14T02:37:32;4.60;;;3.80;;
52590;SDS011;38483;42.620;25.394;2023-05-14T02:40:00;4.60;;;4.20;;
52590;SDS011;38483;42.620;25.394;2023-05-14T02:42:31;7.03;;;3.87;;
52590;SDS011;38483;42.620;25.394;2023-05-14T02:44:58;6.70;;;4.23;;
52590;SDS011;38483;42.620;25.394;2023-05-14T02:47:25;4.40;;;3.77;;
52590;SDS011;38483;42.620;25.394;2023-05-14T02:49:53;7.97;;;5.30;;
52590;SDS011;38483;42.620;25.394;2023-05-14T02:52:20;4.30;;;3.90;;
52590;SDS011;38483;42.620;25.394;2023-05-14T02:54:47;4.77;;;4.00;;
52590;SDS011;38483;42.620;25.394;2023-05-14T02:57:14;4.93;;;3.47;;
52590;SDS011;38483;42.620;25.394;2023-05-14T02:59:41;10.63;;;4.70;;
52590;SDS011;38483;42.620;25.394;2023-05-14T03:02:08;4.50;;;3.60;;
52590;SDS011;38483;42.620;25.394;2023-05-14T03:04:36;5.43;;;3.90;;
52590;SDS011;38483;42.620;25.394;2023-05-14T03:07:03;6.53;;;4.37;;
52590;SDS011;38483;42.620;25.394;2023-05-14T03:09:30;4.87;;;3.63;;
52590;SDS011;38483;42.620;25.394;2023-05-14T03:11:57;5.90;;;3.80;;
52590;SDS011;38483;42.620;25.394;2023-05-14T03:14:24;5.83;;;4.17;;
52590;SDS011;38483;42.620;25.394;2023-05-14T03:16:51;5.83;;;3.97;;
52590;SDS011;38483;42.620;25.394;2023-05-14T03:19:18;5.07;;;3.80;;
52590;SDS011;38483;42.620;25.394;2023-05-14T03:21:45;5.27;;;3.80;;
52590;SDS011;38483;42.620;25.394;2023-05-14T03:24:12;4.40;;;3.70;;
52590;SDS011;38483;42.620;25.394;2023-05-14T03:26:39;6.80;;;4.07;;
52590;SDS011;38483;42.620;25.394;2023-05-14T03:29:06;4.53;;;3.80;;
52590;SDS011;38483;42.620;25.394;2023-05-14T03:31:34;6.90;;;3.67;;
52590;SDS011;38483;42.620;25.394;2023-05-14T03:34:01;9.80;;;3.90;;
52590;SDS011;38483;42.620;25.394;2023-05-14T03:36:28;6.47;;;3.03;;
52590;SDS011;38483;42.620;25.394;2023-05-14T03:38:55;7.40;;;3.17;;
52590;SDS011;38483;42.620;25.394;2023-05-14T03:41:22;4.57;;;3.17;;
52590;SDS011;38483;42.620;25.394;2023-05-14T03:43:49;4.30;;;3.67;;
52590;SDS011;38483;42.620;25.394;2023-05-14T03:46:16;9.77;;;4.33;;
52590;SDS011;38483;42.620;25.394;2023-05-14T03:48:43;6.63;;;4.30;;
52590;SDS011;38483;42.620;25.394;2023-05-14T03:51:11;8.70;;;4.40;;
52590;SDS011;38483;42.620;25.394;2023-05-14T03:53:38;5.90;;;4.90;;
52590;SDS011;38483;42.620;25.394;2023-05-14T03:56:05;6.07;;;4.50;;
52590;SDS011;38483;42.620;25.394;2023-05-14T03:58:32;5.37;;;4.20;;
52590;SDS011;38483;42.620;25.394;2023-05-14T04:00:59;6.17;;;4.00;;
52590;SDS011;38483;42.620;25.394;2023-05-14T04:03:26;7.13;;;4.63;;
52590;SDS011;38483;42.620;25.394;2023-05-14T04:05:54;7.10;;;4.70;;
52590;SDS011;38483;42.620;25.394;2023-05-14T04:08:21;8.50;;;4.80;;
52590;SDS011;38483;42.620;25.394;2023-05-14T04:10:48;5.40;;;4.60;;
52590;SDS011;38483;42.620;25.394;2023-05-14T04:13:16;6.33;;;4.67;;
52590;SDS011;38483;42.620;25.394;2023-05-14T04:15:43;7.47;;;4.90;;
52590;SDS011;38483;42.620;25.394;2023-05-14T04:18:10;7.00;;;4.77;;
52590;SDS011;38483;42.620;25.394;2023-05-14T04:20:37;5.07;;;4.57;;
52590;SDS011;38483;42.620;25.394;2023-05-14T04:23:04;7.93;;;4.57;;
52590;SDS011;38483;42.620;25.394;2023-05-14T04:25:31;4.73;;;3.93;;
52590;SDS011;38483;42.620;25.394;2023-05-14T04:27:58;5.53;;;4.43;;
52590;SDS011;38483;42.620;25.394;2023-05-14T04:30:25;5.50;;;4.70;;
52590;SDS011;38483;42.620;25.394;2023-05-14T04:32:52;5.20;;;3.97;;
52590;SDS011;38483;42.620;25.394;2023-05-14T04:35:19;6.20;;;4.17;;
52590;SDS011;38483;42.620;25.394;2023-05-14T04:37:50;5.00;;;3.53;;
52590;SDS011;38483;42.620;25.394;2023-05-14T04:40:17;5.63;;;3.77;;
52590;SDS011;38483;42.620;25.394;2023-05-14T04:42:46;5.53;;;3.27;;
52590;SDS011;38483;42.620;25.394;2023-05-14T04:45:13;5.03;;;3.67;;
52590;SDS011;38483;42.620;25.394;2023-05-14T04:47:40;7.57;;;3.40;;
52590;SDS011;38483;42.620;25.394;2023-05-14T04:50:07;4.97;;;2.93;;
52590;SDS011;38483;42.620;25.394;2023-05-14T04:52:35;4.47;;;3.33;;
52590;SDS011;38483;42.620;25.394;2023-05-14T04:55:02;5.53;;;4.23;;
52590;SDS011;38483;42.620;25.394;2023-05-14T04:57:30;5.70;;;3.20;;
52590;SDS011;38483;42.620;25.394;2023-05-14T04:59:57;7.63;;;3.80;;
52590;SDS011;38483;42.620;25.394;2023-05-14T05:02:24;5.10;;;3.40;;
52590;SDS011;38483;42.620;25.394;2023-05-14T05:04:51;7.13;;;3.40;;
52590;SDS011;38483;42.620;25.394;2023-05-14T05:07:18;6.40;;;3.50;;
52590;SDS011;38483;42.620;25.394;2023-05-14T05:09:45;4.03;;;3.43;;
52590;SDS011;38483;42.620;25.394;2023-05-14T05:12:13;3.60;;;3.27;;
52590;SDS011;38483;42.620;25.394;2023-05-14T05:14:40;5.07;;;3.67;;
52590;SDS011;38483;42.620;25.394;2023-05-14T05:17:07;6.63;;;3.70;;
52590;SDS011;38483;42.620;25.394;2023-05-14T05:19:34;4.50;;;3.63;;
52590;SDS011;38483;42.620;25.394;2023-05-14T05:22:09;5.30;;;3.80;;
52590;SDS011;38483;42.620;25.394;2023-05-14T05:24:36;6.47;;;4.10;;
52590;SDS011;38483;42.620;25.394;2023-05-14T05:27:03;6.23;;;3.97;;
52590;SDS011;38483;42.620;25.394;2023-05-14T05:29:31;7.30;;;3.97;;
52590;SDS011;38483;42.620;25.394;2023-05-14T05:31:58;6.17;;;4.17;;
52590;SDS011;38483;42.620;25.394;2023-05-14T05:34:25;7.73;;;3.47;;
52590;SDS011;38483;42.620;25.394;2023-05-14T05:36:52;5.13;;;3.40;;
52590;SDS011;38483;42.620;25.394;2023-05-14T05:39:19;6.63;;;4.03;;
52590;SDS011;38483;42.620;25.394;2023-05-14T05:41:46;7.33;;;4.67;;
52590;SDS011;38483;42.620;25.394;2023-05-14T05:44:13;6.20;;;4.30;;
52590;SDS011;38483;42.620;25.394;2023-05-14T05:46:40;6.33;;;3.47;;
52590;SDS011;38483;42.620;25.394;2023-05-14T05:49:07;8.00;;;4.10;;
52590;SDS011;38483;42.620;25.394;2023-05-14T05:51:34;5.63;;;3.50;;
52590;SDS011;38483;42.620;25.394;2023-05-14T05:54:02;7.80;;;4.10;;
52590;SDS011;38483;42.620;25.394;2023-05-14T05:56:29;3.50;;;3.20;;
52590;SDS011;38483;42.620;25.394;2023-05-14T05:58:56;5.30;;;3.97;;
52590;SDS011;38483;42.620;25.394;2023-05-14T06:01:23;5.47;;;3.90;;
52590;SDS011;38483;42.620;25.394;2023-05-14T06:03:51;3.90;;;3.00;;
52590;SDS011;38483;42.620;25.394;2023-05-14T06:06:18;3.73;;;3.33;;
52590;SDS011;38483;42.620;25.394;2023-05-14T06:08:45;4.37;;;3.00;;
52590;SDS011;38483;42.620;25.394;2023-05-14T06:11:12;3.93;;;2.90;;
52590;SDS011;38483;42.620;25.394;2023-05-14T06:13:39;4.60;;;3.40;;
52590;SDS011;38483;42.620;25.394;2023-05-14T06:16:06;4.70;;;3.23;;
52590;SDS011;38483;42.620;25.394;2023-05-14T06:18:33;5.97;;;3.17;;
52590;SDS011;38483;42.620;25.394;2023-05-14T06:21:00;6.07;;;3.30;;
52590;SDS011;38483;42.620;25.394;2023-05-14T06:23:28;4.87;;;3.40;;
52590;SDS011;38483;42.620;25.394;2023-05-14T06:25:55;7.97;;;3.50;;
52590;SDS011;38483;42.620;25.394;2023-05-14T06:28:22;6.17;;;3.80;;
52590;SDS011;38483;42.620;25.394;2023-05-14T06:30:49;6.97;;;3.40;;
52590;SDS011;38483;42.620;25.394;2023-05-14T06:33:16;4.77;;;3.40;;
52590;SDS011;38483;42.620;25.394;2023-05-14T06:35:46;8.20;;;4.30;;
52590;SDS011;38483;42.620;25.394;2023-05-14T06:38:13;6.83;;;3.30;;
52590;SDS011;38483;42.620;25.394;2023-05-14T06:40:40;4.50;;;3.40;;
52590;SDS011;38483;42.620;25.394;2023-05-14T06:43:07;4.57;;;3.30;;
52590;SDS011;38483;42.620;25.394;2023-05-14T06:45:34;4.83;;;3.37;;
52590;SDS011;38483;42.620;25.394;2023-05-14T06:48:01;6.47;;;4.50;;
52590;SDS011;38483;42.620;25.394;2023-05-14T06:50:28;7.27;;;4.20;;
52590;SDS011;38483;42.620;25.394;2023-05-14T06:52:55;7.90;;;4.83;;
52590;SDS011;38483;42.620;25.394;2023-05-14T06:55:22;5.87;;;4.27;;
52590;SDS011;38483;42.620;25.394;2023-05-14T06:57:49;4.73;;;3.50;;
52590;SDS011;38483;42.620;25.394;2023-05-14T07:00:16;6.53;;;4.37;;
52590;SDS011;38483;42.620;25.394;2023-05-14T07:02:43;9.63;;;4.57;;
52590;SDS011;38483;42.620;25.394;2023-05-14T07:05:10;5.57;;;4.00;;
52590;SDS011;38483;42.620;25.394;2023-05-14T07:07:37;6.57;;;3.93;;
52590;SDS011;38483;42.620;25.394;2023-05-14T07:10:04;5.80;;;4.33;;
52590;SDS011;38483;42.620;25.394;2023-05-14T07:12:33;5.50;;;3.90;;
52590;SDS011;38483;42.620;25.394;2023-05-14T07:15:00;4.60;;;3.83;;
52590;SDS011;38483;42.620;25.394;2023-05-14T07:17:30;7.70;;;4.47;;
52590;SDS011;38483;42.620;25.394;2023-05-14T07:19:57;6.37;;;4.23;;
52590;SDS011;38483;42.620;25.394;2023-05-14T07:22:24;7.73;;;5.00;;
52590;SDS011;38483;42.620;25.394;2023-05-14T07:24:51;6.40;;;4.30;;
52590;SDS011;38483;42.620;25.394;2023-05-14T07:27:18;5.60;;;4.73;;
52590;SDS011;38483;42.620;25.394;2023-05-14T07:29:45;7.10;;;3.90;;
52590;SDS011;38483;42.620;25.394;2023-05-14T07:32:12;4.50;;;3.40;;
52590;SDS011;38483;42.620;25.394;2023-05-14T07:34:41;4.87;;;3.73;;
52590;SDS011;38483;42.620;25.394;2023-05-14T07:37:08;4.30;;;3.47;;
52590;SDS011;38483;42.620;25.394;2023-05-14T07:39:35;5.90;;;3.47;;
52590;SDS011;38483;42.620;25.394;2023-05-14T07:42:03;9.13;;;4.00;;
52590;SDS011;38483;42.620;25.394;2023-05-14T07:44:30;7.73;;;4.23;;
52590;SDS011;38483;42.620;25.394;2023-05-14T07:46:57;7.50;;;4.50;;
52590;SDS011;38483;42.620;25.394;2023-05-14T07:49:24;7.17;;;4.00;;
52590;SDS011;38483;42.620;25.394;2023-05-14T07:51:51;4.57;;;3.40;;
52590;SDS011;38483;42.620;25.394;2023-05-14T07:54:18;5.27;;;3.60;;
52590;SDS011;38483;42.620;25.394;2023-05-14T07:56:45;8.67;;;4.30;;
52590;SDS011;38483;42.620;25.394;2023-05-14T07:59:12;6.87;;;3.73;;
52590;SDS011;38483;42.620;25.394;2023-05-14T08:01:39;5.70;;;3.40;;
52590;SDS011;38483;42.620;25.394;2023-05-14T08:04:06;5.80;;;3.70;;
52590;SDS011;38483;42.620;25.394;2023-05-14T08:06:46;6.00;;;3.40;;
52590;SDS011;38483;42.620;25.394;2023-05-14T08:09:13;6.87;;;3.60;;
52590;SDS011;38483;42.620;25.394;2023-05-14T08:11:40;5.50;;;3.03;;
52590;SDS011;38483;42.620;25.394;2023-05-14T08:14:07;6.47;;;3.40;;
52590;SDS011;38483;42.620;25.394;2023-05-14T08:16:34;4.63;;;3.47;;
52590;SDS011;38483;42.620;25.394;2023-05-14T08:19:01;6.13;;;3.43;;
52590;SDS011;38483;42.620;25.394;2023-05-14T08:21:28;4.10;;;3.33;;
52590;SDS011;38483;42.620;25.394;2023-05-14T08:23:55;21.20;;;9.53;;
52590;SDS011;38483;42.620;25.394;2023-05-14T08:26:22;9.20;;;4.20;;
52590;SDS011;38483;42.620;25.394;2023-05-14T08:28:48;8.63;;;3.83;;
52590;SDS011;38483;42.620;25.394;2023-05-14T08:31:15;6.23;;;3.77;;
52590;SDS011;38483;42.620;25.394;2023-05-14T08:33:42;6.03;;;3.40;;
52590;SDS011;38483;42.620;25.394;2023-05-14T08:36:09;7.23;;;4.03;;
52590;SDS011;38483;42.620;25.394;2023-05-14T08:38:36;4.63;;;3.67;;
52590;SDS011;38483;42.620;25.394;2023-05-14T08:41:04;14.43;;;4.57;;
52590;SDS011;38483;42.620;25.394;2023-05-14T08:43:36;6.53;;;3.83;;
52590;SDS011;38483;42.620;25.394;2023-05-14T08:46:10;10.00;;;4.40;;
52590;SDS011;38483;42.620;25.394;2023-05-14T08:48:41;7.17;;;3.70;;
52590;SDS011;38483;42.620;25.394;2023-05-14T08:51:08;4.47;;;3.57;;
52590;SDS011;38483;42.620;25.394;2023-05-14T08:53:35;7.57;;;4.73;;
52590;SDS011;38483;42.620;25.394;2023-05-14T08:56:04;5.70;;;4.20;;
52590;SDS011;38483;42.620;25.394;2023-05-14T08:58:32;5.90;;;3.73;;
52590;SDS011;38483;42.620;25.394;2023-05-14T09:00:59;5.63;;;4.20;;
52590;SDS011;38483;42.620;25.394;2023-05-14T09:03:26;6.33;;;4.30;;
52590;SDS011;38483;42.620;25.394;2023-05-14T09:05:54;5.63;;;4.53;;
52590;SDS011;38483;42.620;25.394;2023-05-14T09:08:25;4.50;;;4.10;;
52590;SDS011;38483;42.620;25.394;2023-05-14T09:10:52;7.97;;;4.53;;
52590;SDS011;38483;42.620;25.394;2023-05-14T09:13:19;7.53;;;4.30;;
52590;SDS011;38483;42.620;25.394;2023-05-14T09:15:46;7.07;;;5.20;;
52590;SDS011;38483;42.620;25.394;2023-05-14T09:18:16;4.80;;;3.90;;
52590;SDS011;38483;42.620;25.394;2023-05-14T09:20:43;6.87;;;4.90;;
52590;SDS011;38483;42.620;25.394;2023-05-14T09:23:10;11.80;;;4.73;;
52590;SDS011;38483;42.620;25.394;2023-05-14T09:25:37;6.47;;;4.60;;
52590;SDS011;38483;42.620;25.394;2023-05-14T09:28:04;9.27;;;4.80;;
52590;SDS011;38483;42.620;25.394;2023-05-14T09:30:33;7.77;;;4.37;;
52590;SDS011;38483;42.620;25.394;2023-05-14T09:33:03;6.27;;;4.30;;
52590;SDS011;38483;42.620;25.394;2023-05-14T09:35:30;7.90;;;5.47;;
52590;SDS011;38483;42.620;25.394;2023-05-14T09:37:58;5.70;;;4.63;;
52590;SDS011;38483;42.620;25.394;2023-05-14T09:40:25;8.27;;;5.20;;
52590;SDS011;38483;42.620;25.394;2023-05-14T09:42:52;7.53;;;5.30;;
52590;SDS011;38483;42.620;25.394;2023-05-14T09:45:19;10.77;;;6.10;;
52590;SDS011;38483;42.620;25.394;2023-05-14T09:48:07;13.53;;;7.60;;
52590;SDS011;38483;42.620;25.394;2023-05-14T09:50:40;14.23;;;8.63;;
52590;SDS011;38483;42.620;25.394;2023-05-14T09:53:08;10.37;;;7.50;;
52590;SDS011;38483;42.620;25.394;2023-05-14T09:55:36;7.10;;;6.10;;
52590;SDS011;38483;42.620;25.394;2023-05-14T09:58:04;10.03;;;5.93;;
52590;SDS011;38483;42.620;25.394;2023-05-14T10:00:31;8.47;;;5.83;;
52590;SDS011;38483;42.620;25.394;2023-05-14T10:03:02;6.53;;;4.30;;
52590;SDS011;38483;42.620;25.394;2023-05-14T10:05:34;6.50;;;4.43;;
52590;SDS011;38483;42.620;25.394;2023-05-14T10:08:04;8.00;;;5.07;;
52590;SDS011;38483;42.620;25.394;2023-05-14T10:10:37;8.30;;;4.77;;
52590;SDS011;38483;42.620;25.394;2023-05-14T10:13:14;8.60;;;4.40;;
52590;SDS011;38483;42.620;25.394;2023-05-14T10:16:07;5.47;;;3.43;;
52590;SDS011;38483;42.620;25.394;2023-05-14T10:18:46;4.80;;;4.37;;
52590;SDS011;38483;42.620;25.394;2023-05-14T10:21:19;6.53;;;5.23;;
52590;SDS011;38483;42.620;25.394;2023-05-14T10:23:48;4.10;;;3.63;;
52590;SDS011;38483;42.620;25.394;2023-05-14T10:26:16;5.30;;;4.07;;
52590;SDS011;38483;42.620;25.394;2023-05-14T10:28:43;6.63;;;4.50;;
52590;SDS011;38483;42.620;25.394;2023-05-14T10:31:11;4.77;;;3.93;;
52590;SDS011;38483;42.620;25.394;2023-05-14T10:34:46;6.27;;;4.13;;
52590;SDS011;38483;42.620;25.394;2023-05-14T10:37:15;9.03;;;4.20;;
52590;SDS011;38483;42.620;25.394;2023-05-14T10:39:58;7.37;;;4.40;;
52590;SDS011;38483;42.620;25.394;2023-05-14T10:42:34;7.10;;;4.67;;
52590;SDS011;38483;42.620;25.394;2023-05-14T10:45:06;5.20;;;4.37;;
52590;SDS011;38483;42.620;25.394;2023-05-14T10:47:35;7.00;;;5.10;;
52590;SDS011;38483;42.620;25.394;2023-05-14T10:50:07;7.67;;;5.20;;
52590;SDS011;38483;42.620;25.394;2023-05-14T10:52:36;5.70;;;4.27;;
52590;SDS011;38483;42.620;25.394;2023-05-14T10:55:04;5.83;;;4.40;;
52590;SDS011;38483;42.620;25.394;2023-05-14T10:57:38;4.73;;;3.97;;
52590;SDS011;38483;42.620;25.394;2023-05-14T11:00:08;5.37;;;4.60;;
52590;SDS011;38483;42.620;25.394;2023-05-14T11:02:37;6.10;;;4.90;;
52590;SDS011;38483;42.620;25.394;2023-05-14T11:07:36;6.67;;;4.50;;
52590;SDS011;38483;42.620;25.394;2023-05-14T11:12:40;6.53;;;4.67;;
52590;SDS011;38483;42.620;25.394;2023-05-14T11:15:08;5.07;;;4.57;;
52590;SDS011;38483;42.620;25.394;2023-05-14T11:17:37;5.90;;;4.80;;
52590;SDS011;38483;42.620;25.394;2023-05-14T11:20:06;4.57;;;4.07;;
52590;SDS011;38483;42.620;25.394;2023-05-14T11:22:35;8.63;;;5.20;;
52590;SDS011;38483;42.620;25.394;2023-05-14T11:25:03;10.77;;;5.10;;
52590;SDS011;38483;42.620;25.394;2023-05-14T11:27:53;5.93;;;4.33;;
52590;SDS011;38483;42.620;25.394;2023-05-14T11:30:23;4.77;;;3.93;;
52590;SDS011;38483;42.620;25.394;2023-05-14T11:32:51;5.40;;;4.20;;
52590;SDS011;38483;42.620;25.394;2023-05-14T11:35:19;4.83;;;4.13;;
52590;SDS011;38483;42.620;25.394;2023-05-14T11:37:50;5.57;;;3.77;;
52590;SDS011;38483;42.620;25.394;2023-05-14T11:40:19;5.53;;;4.50;;
52590;SDS011;38483;42.620;25.394;2023-05-14T11:42:48;5.20;;;4.33;;
52590;SDS011;38483;42.620;25.394;2023-05-14T11:45:23;8.83;;;4.23;;
52590;SDS011;38483;42.620;25.394;2023-05-14T11:47:55;5.70;;;4.77;;
52590;SDS011;38483;42.620;25.394;2023-05-14T11:50:23;6.30;;;5.37;;
52590;SDS011;38483;42.620;25.394;2023-05-14T11:52:54;5.60;;;4.43;;
52590;SDS011;38483;42.620;25.394;2023-05-14T11:55:23;5.47;;;4.57;;
52590;SDS011;38483;42.620;25.394;2023-05-14T11:57:50;5.30;;;4.80;;
52590;SDS011;38483;42.620;25.394;2023-05-14T12:00:17;5.50;;;4.93;;
52590;SDS011;38483;42.620;25.394;2023-05-14T12:02:48;5.77;;;5.00;;
52590;SDS011;38483;42.620;25.394;2023-05-14T12:05:16;8.43;;;6.60;;
52590;SDS011;38483;42.620;25.394;2023-05-14T12:07:44;7.70;;;6.00;;
52590;SDS011;38483;42.620;25.394;2023-05-14T12:10:12;6.73;;;4.83;;
52590;SDS011;38483;42.620;25.394;2023-05-14T12:12:39;6.47;;;5.10;;
52590;SDS011;38483;42.620;25.394;2023-05-14T12:15:11;6.77;;;4.67;;
52590;SDS011;38483;42.620;25.394;2023-05-14T12:17:39;7.17;;;4.30;;
52590;SDS011;38483;42.620;25.394;2023-05-14T12:20:07;6.77;;;5.13;;
52590;SDS011;38483;42.620;25.394;2023-05-14T12:22:36;8.57;;;5.73;;
52590;SDS011;38483;42.620;25.394;2023-05-14T12:25:08;8.57;;;5.83;;
52590;SDS011;38483;42.620;25.394;2023-05-14T12:27:38;6.00;;;5.27;;
52590;SDS011;38483;42.620;25.394;2023-05-14T12:30:05;8.67;;;5.87;;
52590;SDS011;38483;42.620;25.394;2023-05-14T12:32:37;12.37;;;6.40;;
52590;SDS011;38483;42.620;25.394;2023-05-14T12:35:07;7.20;;;6.27;;
52590;SDS011;38483;42.620;25.394;2023-05-14T12:37:35;13.77;;;8.70;;
52590;SDS011;38483;42.620;25.394;2023-05-14T12:40:03;8.50;;;6.47;;
52590;SDS011;38483;42.620;25.394;2023-05-14T12:42:34;7.13;;;5.63;;
52590;SDS011;38483;42.620;25.394;2023-05-14T12:45:02;8.73;;;5.63;;
52590;SDS011;38483;42.620;25.394;2023-05-14T12:47:32;7.00;;;5.90;;
52590;SDS011;38483;42.620;25.394;2023-05-14T12:50:00;7.80;;;6.83;;
52590;SDS011;38483;42.620;25.394;2023-05-14T12:52:31;9.60;;;6.87;;
52590;SDS011;38483;42.620;25.394;2023-05-14T12:55:01;8.53;;;6.40;;
52590;SDS011;38483;42.620;25.394;2023-05-14T12:57:29;7.63;;;6.70;;
52590;SDS011;38483;42.620;25.394;2023-05-14T12:59:56;11.00;;;7.07;;
52590;SDS011;38483;42.620;25.394;2023-05-14T13:02:23;8.87;;;7.03;;
52590;SDS011;38483;42.620;25.394;2023-05-14T13:04:51;9.40;;;7.67;;
52590;SDS011;38483;42.620;25.394;2023-05-14T13:07:18;8.80;;;6.93;;
52590;SDS011;38483;42.620;25.394;2023-05-14T13:09:44;10.03;;;7.30;;
52590;SDS011;38483;42.620;25.394;2023-05-14T13:12:11;8.43;;;7.20;;
52590;SDS011;38483;42.620;25.394;2023-05-14T13:14:39;10.13;;;7.60;;
52590;SDS011;38483;42.620;25.394;2023-05-14T13:17:05;9.60;;;6.93;;
52590;SDS011;38483;42.620;25.394;2023-05-14T13:19:33;7.80;;;6.60;;
52590;SDS011;38483;42.620;25.394;2023-05-14T13:22:00;7.90;;;7.07;;
52590;SDS011;38483;42.620;25.394;2023-05-14T13:24:27;7.30;;;6.23;;
52590;SDS011;38483;42.620;25.394;2023-05-14T13:26:54;10.20;;;6.93;;
52590;SDS011;38483;42.620;25.394;2023-05-14T13:29:22;11.13;;;6.50;;
52590;SDS011;38483;42.620;25.394;2023-05-14T13:31:49;9.13;;;6.10;;
52590;SDS011;38483;42.620;25.394;2023-05-14T13:34:16;9.63;;;6.50;;
52590;SDS011;38483;42.620;25.394;2023-05-14T13:36:44;7.73;;;6.23;;
52590;SDS011;38483;42.620;25.394;2023-05-14T13:39:12;9.63;;;6.47;;
52590;SDS011;38483;42.620;25.394;2023-05-14T13:41:40;7.00;;;6.30;;
52590;SDS011;38483;42.620;25.394;2023-05-14T13:44:07;7.30;;;6.10;;
52590;SDS011;38483;42.620;25.394;2023-05-14T13:46:34;7.63;;;6.20;;
52590;SDS011;38483;42.620;25.394;2023-05-14T13:49:01;7.53;;;6.17;;
52590;SDS011;38483;42.620;25.394;2023-05-14T13:51:28;10.23;;;7.30;;
52590;SDS011;38483;42.620;25.394;2023-05-14T13:53:55;8.43;;;7.27;;
52590;SDS011;38483;42.620;25.394;2023-05-14T13:56:22;8.50;;;7.60;;
52590;SDS011;38483;42.620;25.394;2023-05-14T13:58:49;8.13;;;5.90;;
52590;SDS011;38483;42.620;25.394;2023-05-14T14:01:16;7.77;;;5.53;;
52590;SDS011;38483;42.620;25.394;2023-05-14T14:03:43;8.60;;;5.90;;
52590;SDS011;38483;42.620;25.394;2023-05-14T14:06:13;6.87;;;6.00;;
52590;SDS011;38483;42.620;25.394;2023-05-14T14:08:40;7.80;;;5.37;;
52590;SDS011;38483;42.620;25.394;2023-05-14T14:11:07;7.10;;;4.70;;
52590;SDS011;38483;42.620;25.394;2023-05-14T14:13:34;8.73;;;5.13;;
52590;SDS011;38483;42.620;25.394;2023-05-14T14:16:02;5.47;;;4.17;;
52590;SDS011;38483;42.620;25.394;2023-05-14T14:18:30;5.90;;;4.57;;
52590;SDS011;38483;42.620;25.394;2023-05-14T14:20:57;7.57;;;4.90;;
52590;SDS011;38483;42.620;25.394;2023-05-14T14:23:24;8.37;;;5.40;;
52590;SDS011;38483;42.620;25.394;2023-05-14T14:25:51;8.60;;;5.13;;
52590;SDS011;38483;42.620;25.394;2023-05-14T14:28:18;6.57;;;5.83;;
52590;SDS011;38483;42.620;25.394;2023-05-14T14:30:45;10.20;;;6.73;;
52590;SDS011;38483;42.620;25.394;2023-05-14T14:33:12;6.87;;;5.53;;
52590;SDS011;38483;42.620;25.394;2023-05-14T14:35:39;7.77;;;6.27;;
52590;SDS011;38483;42.620;25.394;2023-05-14T14:38:09;8.47;;;6.03;;
52590;SDS011;38483;42.620;25.394;2023-05-14T14:40:39;9.00;;;6.57;;
52590;SDS011;38483;42.620;25.394;2023-05-14T14:43:07;9.03;;;6.37;;
52590;SDS011;38483;42.620;25.394;2023-05-14T14:45:34;7.90;;;6.37;;
52590;SDS011;38483;42.620;25.394;2023-05-14T14:50:53;6.60;;;5.70;;
52590;SDS011;38483;42.620;25.394;2023-05-14T14:53:21;8.93;;;5.60;;
52590;SDS011;38483;42.620;25.394;2023-05-14T14:55:49;8.07;;;5.47;;
52590;SDS011;38483;42.620;25.394;2023-05-14T14:58:17;5.87;;;5.23;;